Time;durP1;ratioP1;P1;durP2;ratioP2;P2;SDS_P1;SDS_P2;PMS_P1;PMS_P2;Temp;Humidity;BMP_temperature;BMP_pressure;BME280_temperature;BME280_humidity;BME280_pressure;Samples;Min_cycle;Max_cycle;Signal;HPM_P1;HPM_P2
2024/03/09 00:00:33;;;;;;;37.17;19.77;;;2.00;99.90;;;;;;5126159;28;20312;-79
2024/03/09 00:03:01;;;;;;;36.83;20.30;;;2.10;99.90;;;;;;5126312;27;20204;-79
2024/03/09 00:05:29;;;;;;;35.67;19.43;;;2.10;99.90;;;;;;5126179;28;20221;-80
2024/03/09 00:07:57;;;;;;;37.43;20.23;;;1.90;99.90;;;;;;5126360;28;20197;-80
2024/03/09 00:10:26;;;;;;;38.67;21.27;;;1.80;99.90;;;;;;5124822;28;20229;-80
2024/03/09 00:12:53;;;;;;;33.90;18.27;;;1.80;1.00;;;;;;5125333;28;20225;-78
2024/03/09 00:15:23;;;;;;;36.80;20.60;;;1.60;1.00;;;;;;5125117;28;20189;-80
2024/03/09 00:17:52;;;;;;;37.80;20.77;;;1.60;1.00;;;;;;5125688;28;20631;-79
2024/03/09 00:20:21;;;;;;;42.50;20.50;;;1.60;99.90;;;;;;5125058;28;20228;-80
2024/03/09 00:22:48;;;;;;;39.10;21.20;;;1.70;1.00;;;;;;5125150;28;20223;-79
2024/03/09 00:25:16;;;;;;;39.60;20.73;;;1.80;99.90;;;;;;5124873;27;20269;-78
2024/03/09 00:27:43;;;;;;;39.80;20.53;;;1.90;98.30;;;;;;5124987;28;20767;-78
2024/03/09 00:30:17;;;;;;;40.07;21.50;;;1.80;1.00;;;;;;5126874;28;20253;-80
2024/03/09 00:32:47;;;;;;;40.40;21.47;;;1.80;99.90;;;;;;5126098;28;20240;-78
2024/03/09 00:35:14;;;;;;;41.43;21.67;;;1.60;99.90;;;;;;5125980;28;20288;-79
2024/03/09 00:37:41;;;;;;;42.53;22.37;;;1.80;99.90;;;;;;5126128;28;20218;-79
2024/03/09 00:40:09;;;;;;;43.63;22.40;;;1.80;99.90;;;;;;5125165;28;20640;-78
2024/03/09 00:42:36;;;;;;;47.23;23.20;;;1.90;18.80;;;;;;5124537;28;20193;-78
2024/03/09 00:45:04;;;;;;;45.77;23.90;;;2.10;99.40;;;;;;5125345;28;20208;-80
2024/03/09 00:47:32;;;;;;;41.90;23.80;;;2.10;1.00;;;;;;5124895;28;20200;-79
2024/03/09 00:50:01;;;;;;;40.13;22.20;;;2.10;1.00;;;;;;5125298;28;20221;-79
2024/03/09 00:52:28;;;;;;;41.40;23.30;;;2.10;79.10;;;;;;5124433;27;20224;-80
2024/03/09 00:54:55;;;;;;;44.87;24.47;;;2.00;27.80;;;;;;5124984;28;20200;-79
2024/03/09 00:57:23;;;;;;;42.53;23.17;;;2.10;9.90;;;;;;5125246;28;20197;-79
2024/03/09 00:59:52;;;;;;;44.17;23.63;;;1.90;1.00;;;;;;5124862;28;20281;-79
2024/03/09 01:02:19;;;;;;;42.53;24.13;;;1.90;1.00;;;;;;5125627;28;20223;-79
2024/03/09 01:04:48;;;;;;;43.80;23.00;;;1.60;1.00;;;;;;5124191;28;20216;-79
2024/03/09 01:07:16;;;;;;;40.97;22.03;;;1.30;99.90;;;;;;5123202;28;20200;-77
2024/03/09 01:09:47;;;;;;;41.53;23.23;;;1.20;99.90;;;;;;5123414;28;20205;-79
2024/03/09 01:12:14;;;;;;;45.13;22.57;;;1.20;1.00;;;;;;5122752;28;20189;-78
2024/03/09 01:14:41;;;;;;;41.30;22.73;;;1.20;1.00;;;;;;5123270;28;20197;-79
2024/03/09 01:17:08;;;;;;;42.60;23.37;;;1.10;1.00;;;;;;5123393;28;20250;-80
2024/03/09 01:19:35;;;;;;;44.83;24.03;;;1.10;1.00;;;;;;5123887;28;20200;-80
2024/03/09 01:22:05;;;;;;;41.80;22.23;;;1.20;1.00;;;;;;5123825;28;20197;-80
2024/03/09 01:24:34;;;;;;;42.17;23.70;;;1.10;1.00;;;;;;5123412;28;20220;-79
2024/03/09 01:27:00;;;;;;;46.73;25.90;;;1.10;1.00;;;;;;5123801;28;20204;-79
2024/03/09 01:29:27;;;;;;;40.33;21.67;;;1.20;99.90;;;;;;5124252;28;20205;-79
2024/03/09 01:31:54;;;;;;;42.60;23.47;;;1.00;99.90;;;;;;5124062;28;20259;-78
2024/03/09 01:34:21;;;;;;;44.13;22.50;;;1.00;1.00;;;;;;5124517;28;20256;-79
2024/03/09 01:36:48;;;;;;;47.83;25.57;;;1.00;99.90;;;;;;5123993;28;20200;-80
2024/03/09 01:39:15;;;;;;;47.10;25.40;;;1.30;1.00;;;;;;5124438;27;20228;-80
2024/03/09 01:41:44;;;;;;;47.03;24.33;;;1.20;1.00;;;;;;5124438;28;20248;-80
2024/03/09 01:44:11;;;;;;;45.93;24.67;;;1.30;1.00;;;;;;5124324;28;20639;-79
2024/03/09 01:46:39;;;;;;;43.93;24.57;;;1.10;1.00;;;;;;5123821;28;20570;-79
2024/03/09 01:49:08;;;;;;;43.93;23.07;;;1.10;1.00;;;;;;5123498;28;20218;-79
2024/03/09 01:51:36;;;;;;;44.23;22.83;;;1.10;1.00;;;;;;5123579;28;20231;-78
2024/03/09 01:54:10;;;;;;;47.60;24.93;;;0.90;40.10;;;;;;5123193;28;20686;-79
2024/03/09 01:56:37;;;;;;;50.07;24.90;;;0.90;99.90;;;;;;5123396;28;20276;-79
2024/03/09 01:59:07;;;;;;;50.93;25.40;;;1.00;1.00;;;;;;5112123;28;20216;-78
2024/03/09 02:01:36;;;;;;;50.83;26.00;;;1.00;1.00;;;;;;5103868;28;20229;-79
2024/03/09 02:04:04;;;;;;;51.10;25.90;;;1.00;1.00;;;;;;5103431;28;20202;-79
2024/03/09 02:06:33;;;;;;;51.93;26.30;;;1.10;99.90;;;;;;5103057;28;20201;-79
2024/03/09 02:09:07;;;;;;;52.13;26.73;;;1.30;99.90;;;;;;5102604;28;20202;-80
2024/03/09 02:11:36;;;;;;;49.53;26.47;;;1.30;1.00;;;;;;5103584;28;20229;-79
2024/03/09 02:14:04;;;;;;;48.70;27.23;;;1.20;1.00;;;;;;5103568;28;20222;-77
2024/03/09 02:16:33;;;;;;;48.33;25.30;;;1.30;1.00;;;;;;5103891;28;20212;-79
2024/03/09 02:19:00;;;;;;;48.17;26.23;;;1.40;1.00;;;;;;5102780;28;20212;-79
2024/03/09 02:21:28;;;;;;;52.50;27.93;;;1.30;99.90;;;;;;5103267;28;20225;-79
2024/03/09 02:24:02;;;;;;;52.67;26.90;;;1.40;1.00;;;;;;5104452;28;20203;-79
2024/03/09 02:26:31;;;;;;;52.63;25.63;;;1.40;1.00;;;;;;5101941;28;20280;-77
2024/03/09 02:28:58;;;;;;;51.53;27.40;;;1.40;1.00;;;;;;5099467;28;20206;-76
2024/03/09 02:31:26;;;;;;;54.90;27.40;;;1.40;1.00;;;;;;5099488;28;20225;-77
2024/03/09 02:33:55;;;;;;;48.20;24.53;;;1.60;1.00;;;;;;5104302;28;20253;-80
2024/03/09 02:36:25;;;;;;;54.00;25.80;;;1.40;1.00;;;;;;5104391;28;20208;-79
2024/03/09 02:38:53;;;;;;;51.67;26.70;;;1.40;1.00;;;;;;5102858;28;20229;-79
2024/03/09 02:41:20;;;;;;;52.77;27.00;;;1.40;1.00;;;;;;5104184;28;20233;-80
2024/03/09 02:43:49;;;;;;;54.93;28.33;;;1.40;1.00;;;;;;5104022;28;20228;-79
2024/03/09 02:46:16;;;;;;;49.77;27.03;;;1.50;1.00;;;;;;5104841;28;20186;-78
2024/03/09 02:48:44;;;;;;;60.27;29.23;;;1.50;1.00;;;;;;5104323;28;20298;-79
2024/03/09 02:51:12;;;;;;;47.77;24.20;;;1.40;99.90;;;;;;5104221;28;20248;-77
2024/03/09 02:53:40;;;;;;;52.13;28.13;;;1.50;1.00;;;;;;5104142;28;20293;-78
2024/03/09 02:56:07;;;;;;;53.77;28.37;;;1.50;99.90;;;;;;5103868;28;20711;-78
2024/03/09 02:58:35;;;;;;;53.10;27.00;;;1.40;1.00;;;;;;5103489;28;20237;-79
2024/03/09 03:01:03;;;;;;;54.03;27.77;;;1.40;1.00;;;;;;5103283;28;20272;-79
2024/03/09 03:03:49;;;;;;;60.20;29.33;;;1.40;1.00;;;;;;5103359;28;20215;-79
2024/03/09 03:06:18;;;;;;;52.70;26.97;;;1.40;1.00;;;;;;5102828;28;20251;-79
2024/03/09 03:08:48;;;;;;;53.37;28.07;;;1.40;1.00;;;;;;5102564;28;20212;-78
2024/03/09 03:11:16;;;;;;;50.73;28.33;;;1.40;1.00;;;;;;5102380;28;20283;-78
2024/03/09 03:13:44;;;;;;;52.70;27.97;;;1.40;1.00;;;;;;5099220;28;20630;-78
2024/03/09 03:16:19;;;;;;;54.37;27.33;;;1.30;1.00;;;;;;5099416;28;20205;-76
2024/03/09 03:18:48;;;;;;;51.50;26.73;;;1.30;1.00;;;;;;5098769;28;20221;-78
2024/03/09 03:21:15;;;;;;;49.83;26.67;;;1.20;1.00;;;;;;5099580;28;20225;-77
2024/03/09 03:23:42;;;;;;;51.20;27.73;;;1.20;1.00;;;;;;5099549;28;20553;-77
2024/03/09 03:26:11;;;;;;;52.67;28.03;;;1.20;1.00;;;;;;5099399;28;20233;-78
2024/03/09 03:28:38;;;;;;;50.47;26.27;;;1.10;1.00;;;;;;5099265;28;20204;-78
2024/03/09 03:31:06;;;;;;;50.83;26.87;;;1.10;1.00;;;;;;5101596;28;20275;-78
2024/03/09 03:33:38;;;;;;;52.27;28.37;;;1.00;1.00;;;;;;5102159;28;20217;-79
2024/03/09 03:36:06;;;;;;;52.73;27.80;;;0.90;1.00;;;;;;5102887;28;20194;-78
2024/03/09 03:38:34;;;;;;;50.63;26.33;;;1.00;1.00;;;;;;5102704;28;20209;-79
2024/03/09 03:41:01;;;;;;;54.97;28.10;;;1.10;99.90;;;;;;5103172;28;20225;-79
2024/03/09 03:43:28;;;;;;;50.57;27.87;;;1.20;99.90;;;;;;5102894;28;20676;-78
2024/03/09 03:45:57;;;;;;;49.60;26.63;;;1.10;1.00;;;;;;5103027;28;20190;-78
2024/03/09 03:48:24;;;;;;;51.30;28.00;;;0.90;1.00;;;;;;5103097;28;20660;-77
2024/03/09 03:50:52;;;;;;;50.97;27.30;;;0.90;1.00;;;;;;5102313;28;20255;-78
2024/03/09 03:53:19;;;;;;;53.37;27.33;;;0.80;1.00;;;;;;5102446;28;20217;-78
2024/03/09 03:55:47;;;;;;;53.87;27.77;;;0.80;1.00;;;;;;5103562;28;20202;-78
2024/03/09 03:58:15;;;;;;;53.33;28.50;;;1.20;1.00;;;;;;5102895;28;20241;-78
2024/03/09 04:00:41;;;;;;;56.63;28.87;;;0.90;1.00;;;;;;5103261;28;20218;-77
2024/03/09 04:03:08;;;;;;;53.30;27.77;;;0.80;1.00;;;;;;5102600;28;20213;-78
2024/03/09 04:05:35;;;;;;;53.63;28.37;;;0.80;1.00;;;;;;5102416;28;20221;-78
2024/03/09 04:08:06;;;;;;;47.13;25.17;;;0.80;1.00;;;;;;5102321;28;20255;-78
2024/03/09 04:10:33;;;;;;;53.30;27.17;;;0.70;1.00;;;;;;5102503;28;20229;-78
2024/03/09 04:13:00;;;;;;;47.57;26.87;;;0.50;1.00;;;;;;5103121;28;20664;-78
2024/03/09 04:15:27;;;;;;;49.23;26.40;;;0.50;1.00;;;;;;5123156;28;20232;-77
2024/03/09 04:17:54;;;;;;;56.17;28.37;;;0.50;99.90;;;;;;5122564;27;20556;-76
2024/03/09 04:20:21;;;;;;;51.60;26.60;;;0.40;99.90;;;;;;5122180;28;20252;-77
2024/03/09 04:22:50;;;;;;;54.00;27.00;;;0.30;99.90;;;;;;5115354;28;20640;-78
2024/03/09 04:25:19;;;;;;;50.50;26.43;;;0.30;99.90;;;;;;5102437;28;20659;-79
2024/03/09 04:27:47;;;;;;;55.23;27.90;;;0.40;99.90;;;;;;5107550;28;20216;-78
2024/03/09 04:30:15;;;;;;;55.87;28.07;;;0.50;99.90;;;;;;5122056;28;20741;-79
2024/03/09 04:32:42;;;;;;;52.97;26.63;;;0.50;99.90;;;;;;5122270;28;20204;-76
2024/03/09 04:35:09;;;;;;;57.40;28.93;;;0.50;99.90;;;;;;5121797;28;20224;-78
2024/03/09 04:37:36;;;;;;;48.20;26.37;;;0.40;99.90;;;;;;5122398;28;20223;-78
2024/03/09 04:40:14;;;;;;;52.23;27.43;;;0.50;99.90;;;;;;5121630;28;20221;-78
2024/03/09 04:42:46;;;;;;;53.80;28.30;;;0.60;99.90;;;;;;5121173;27;20221;-78
2024/03/09 04:45:13;;;;;;;51.63;27.07;;;0.60;99.90;;;;;;5106347;28;20859;-78
2024/03/09 04:47:40;;;;;;;52.07;27.90;;;0.50;99.90;;;;;;5105969;28;20541;-78
2024/03/09 04:50:10;;;;;;;51.53;26.67;;;0.30;99.90;;;;;;5112969;28;20253;-78
2024/03/09 04:52:37;;;;;;;52.93;27.23;;;0.20;99.90;;;;;;5102175;28;20462;-78
2024/03/09 04:55:07;;;;;;;55.03;29.10;;;0.20;99.90;;;;;;5101518;28;20218;-78
2024/03/09 04:57:38;;;;;;;54.00;28.00;;;0.20;99.90;;;;;;5101669;28;20747;-77
2024/03/09 05:00:07;;;;;;;50.17;27.03;;;0.10;99.90;;;;;;5100994;28;20243;-78
2024/03/09 05:02:35;;;;;;;52.30;26.67;;;0.00;99.90;;;;;;5101283;28;20202;-78
2024/03/09 05:05:01;;;;;;;53.80;27.00;;;0.10;99.90;;;;;;5101190;28;20252;-78
2024/03/09 05:07:28;;;;;;;53.33;27.17;;;0.20;99.90;;;;;;5101112;28;20254;-78
2024/03/09 05:09:55;;;;;;;55.67;28.57;;;0.10;99.90;;;;;;5101191;28;20205;-77
2024/03/09 05:12:22;;;;;;;52.23;27.27;;;0.20;99.90;;;;;;5102759;28;20247;-77
2024/03/09 05:14:50;;;;;;;52.70;28.47;;;0.10;99.90;;;;;;5121757;28;20228;-79
2024/03/09 05:17:18;;;;;;;47.93;24.93;;;0.00;99.90;;;;;;5121199;28;20658;-77
2024/03/09 05:19:46;;;;;;;53.87;26.37;;;0.10;99.90;;;;;;5121022;28;20227;-78
2024/03/09 05:22:14;;;;;;;51.10;26.60;;;0.00;99.90;;;;;;5121019;28;20205;-78
2024/03/09 05:24:40;;;;;;;49.17;27.10;;;-0.20;99.90;;;;;;5121092;28;20196;-76
2024/03/09 05:27:07;;;;;;;51.77;27.60;;;-0.20;99.90;;;;;;5119744;28;20197;-77
2024/03/09 05:29:35;;;;;;;53.23;31.47;;;0.10;99.90;;;;;;5120445;28;20583;-77
2024/03/09 05:32:03;;;;;;;53.43;31.27;;;0.20;99.90;;;;;;5121628;28;20225;-78
2024/03/09 05:34:34;;;;;;;54.07;31.30;;;0.00;99.90;;;;;;5121135;28;20751;-78
2024/03/09 05:37:06;;;;;;;59.63;34.13;;;0.20;99.90;;;;;;5120785;28;20601;-78
2024/03/09 05:39:36;;;;;;;53.77;27.17;;;0.20;99.90;;;;;;5120961;28;20187;-78
2024/03/09 05:42:04;;;;;;;57.13;28.27;;;0.30;99.90;;;;;;5121549;28;20234;-78
2024/03/09 05:44:32;;;;;;;53.03;28.17;;;0.40;99.90;;;;;;5120508;28;20204;-78
2024/03/09 05:47:01;;;;;;;54.97;26.23;;;0.30;99.90;;;;;;5120342;28;20265;-76
2024/03/09 05:49:28;;;;;;;56.27;28.93;;;0.50;99.90;;;;;;5118905;28;20287;-78
2024/03/09 05:51:57;;;;;;;50.73;27.20;;;0.40;99.90;;;;;;5117329;28;20231;-78
2024/03/09 05:54:24;;;;;;;58.60;27.53;;;0.40;99.90;;;;;;5118832;28;20235;-76
2024/03/09 05:56:51;;;;;;;52.77;26.50;;;0.50;99.90;;;;;;5108593;28;20201;-78
2024/03/09 05:59:19;;;;;;;51.90;28.30;;;0.50;99.90;;;;;;5116647;28;20208;-78
2024/03/09 06:01:46;;;;;;;59.33;30.57;;;0.50;99.90;;;;;;5120566;27;20810;-78
2024/03/09 06:04:13;;;;;;;57.67;29.70;;;0.50;99.90;;;;;;5119016;28;20197;-77
2024/03/09 06:06:40;;;;;;;56.23;27.23;;;0.60;99.90;;;;;;5118511;28;20257;-77
2024/03/09 06:09:09;;;;;;;52.83;27.17;;;0.70;99.90;;;;;;5118674;28;20201;-78
2024/03/09 06:11:36;;;;;;;50.73;28.47;;;0.70;99.90;;;;;;5118212;28;20228;-79
2024/03/09 06:14:04;;;;;;;59.07;29.50;;;0.80;99.90;;;;;;5119591;28;20238;-77
2024/03/09 06:16:33;;;;;;;52.47;28.67;;;0.80;99.90;;;;;;5118826;28;20266;-77
2024/03/09 06:19:00;;;;;;;53.20;27.80;;;1.00;99.90;;;;;;5116133;28;20712;-78
2024/03/09 06:21:27;;;;;;;50.93;26.80;;;0.90;99.90;;;;;;5118445;28;20691;-78
2024/03/09 06:23:54;;;;;;;50.63;27.13;;;0.90;99.90;;;;;;5118392;28;20246;-77
2024/03/09 06:26:22;;;;;;;52.67;27.03;;;0.90;99.90;;;;;;5118356;28;20250;-77
2024/03/09 06:28:49;;;;;;;55.90;27.83;;;0.90;99.90;;;;;;5118814;28;20192;-77
2024/03/09 06:31:16;;;;;;;57.30;28.33;;;1.00;99.90;;;;;;5119417;28;20233;-77
2024/03/09 06:33:43;;;;;;;52.43;27.57;;;1.10;99.90;;;;;;5119184;28;20243;-77
2024/03/09 06:36:12;;;;;;;55.87;27.30;;;1.10;99.90;;;;;;5118502;28;20228;-77
2024/03/09 06:38:40;;;;;;;53.67;26.50;;;1.20;99.90;;;;;;5119369;28;20197;-78
2024/03/09 06:41:09;;;;;;;48.93;25.57;;;1.20;99.90;;;;;;5118539;28;20238;-77
2024/03/09 06:43:38;;;;;;;53.30;27.23;;;1.30;99.90;;;;;;5118139;28;20287;-76
2024/03/09 06:46:08;;;;;;;52.97;26.90;;;1.50;99.90;;;;;;5117744;28;20185;-78
2024/03/09 06:48:35;;;;;;;55.63;27.47;;;1.60;99.90;;;;;;5118049;28;20180;-78
2024/03/09 06:51:02;;;;;;;50.77;26.47;;;1.60;1.00;;;;;;5119415;28;20228;-78
2024/03/09 06:53:30;;;;;;;49.43;27.47;;;1.60;1.00;;;;;;5120045;28;20197;-77
2024/03/09 06:55:57;;;;;;;51.97;27.77;;;1.70;1.00;;;;;;5118149;28;20220;-77
2024/03/09 06:58:25;;;;;;;50.90;26.77;;;1.70;1.00;;;;;;5118595;28;20204;-77
2024/03/09 07:00:53;;;;;;;46.03;24.03;;;1.70;1.00;;;;;;5118319;28;20346;-77
2024/03/09 07:03:20;;;;;;;48.07;26.57;;;1.70;1.00;;;;;;5117869;28;20232;-77
2024/03/09 07:05:47;;;;;;;49.47;25.17;;;1.80;1.00;;;;;;5121458;28;20249;-77
2024/03/09 07:08:16;;;;;;;48.50;26.33;;;2.00;99.90;;;;;;5121592;28;20600;-77
2024/03/09 07:10:43;;;;;;;49.97;26.53;;;1.90;1.00;;;;;;5121563;28;20232;-76
2024/03/09 07:13:10;;;;;;;52.00;26.53;;;2.10;1.00;;;;;;5121788;28;20254;-77
2024/03/09 07:15:37;;;;;;;46.03;25.57;;;2.30;1.00;;;;;;5120997;28;20635;-76
2024/03/09 07:18:07;;;;;;;45.73;26.20;;;2.30;99.90;;;;;;5118993;28;20201;-77
2024/03/09 07:20:35;;;;;;;46.10;24.33;;;2.30;99.90;;;;;;5121278;27;20656;-78
2024/03/09 07:23:03;;;;;;;44.80;23.50;;;2.40;1.00;;;;;;5115083;28;20206;-77
2024/03/09 07:25:30;;;;;;;46.67;24.43;;;2.50;1.00;;;;;;5109529;28;20200;-77
2024/03/09 07:27:59;;;;;;;46.07;23.67;;;2.60;1.00;;;;;;5120090;28;20662;-76
2024/03/09 07:30:26;;;;;;;43.73;24.13;;;2.60;1.00;;;;;;5119610;28;20921;-76
2024/03/09 07:32:53;;;;;;;46.27;23.67;;;2.60;99.90;;;;;;5116155;27;20241;-78
2024/03/09 07:35:27;;;;;;;43.57;22.60;;;2.70;99.90;;;;;;5115334;28;20215;-77
2024/03/09 07:37:55;;;;;;;47.70;24.23;;;2.80;1.00;;;;;;5118854;28;20193;-77
2024/03/09 07:40:24;;;;;;;39.20;19.77;;;2.90;1.00;;;;;;5118373;28;20235;-77
2024/03/09 07:42:53;;;;;;;36.03;17.77;;;3.00;1.00;;;;;;5115676;28;20268;-77
2024/03/09 07:45:22;;;;;;;47.23;25.20;;;3.50;99.90;;;;;;5118723;28;20201;-77
2024/03/09 07:47:50;;;;;;;39.83;21.83;;;3.70;1.00;;;;;;5118461;27;20298;-77
2024/03/09 07:50:21;;;;;;;41.37;22.60;;;4.50;1.00;;;;;;5119523;28;20213;-78
2024/03/09 07:52:50;;;;;;;35.73;17.83;;;4.80;99.90;;;;;;5122149;28;20219;-78
2024/03/09 07:55:20;;;;;;;38.53;21.70;;;4.90;1.00;;;;;;5120539;28;20221;-77
2024/03/09 07:57:47;;;;;;;40.37;22.40;;;4.10;99.90;;;;;;5121162;28;20692;-77
2024/03/09 08:00:18;;;;;;;38.97;21.23;;;4.40;99.90;;;;;;5120882;27;20263;-77
2024/03/09 08:02:46;;;;;;;42.50;22.40;;;4.00;99.90;;;;;;5121064;28;20646;-77
2024/03/09 08:05:14;;;;;;;36.07;18.53;;;4.20;97.20;;;;;;5121607;28;20189;-77
2024/03/09 08:07:42;;;;;;;39.73;21.70;;;4.30;1.00;;;;;;5104373;28;20202;-76
2024/03/09 08:10:14;;;;;;;43.43;22.63;;;4.20;99.90;;;;;;5100156;28;20677;-77
2024/03/09 08:12:41;;;;;;;40.50;21.27;;;4.00;1.00;;;;;;5100605;28;20711;-78
2024/03/09 08:15:09;;;;;;;36.57;20.30;;;4.60;1.00;;;;;;5110117;28;20633;-78
2024/03/09 08:17:36;;;;;;;38.53;19.60;;;4.40;1.00;;;;;;5119514;28;20232;-77
2024/03/09 08:20:06;;;;;;;39.00;20.03;;;4.60;1.00;;;;;;5120929;28;20223;-77
2024/03/09 08:22:33;;;;;;;42.80;23.33;;;4.90;99.90;;;;;;5120253;27;20667;-77
2024/03/09 08:25:06;;;;;;;36.40;20.77;;;5.50;1.00;;;;;;5120845;27;20619;-77
2024/03/09 08:27:35;;;;;;;40.07;20.23;;;5.40;1.00;;;;;;5120329;28;20204;-77
2024/03/09 08:30:03;;;;;;;39.53;20.03;;;5.10;1.00;;;;;;5120448;28;20776;-77
2024/03/09 08:32:30;;;;;;;31.50;15.37;;;5.30;1.00;;;;;;5118772;28;20197;-77
2024/03/09 08:34:57;;;;;;;35.63;20.33;;;4.70;1.00;;;;;;5120093;27;20246;-76
2024/03/09 08:37:25;;;;;;;37.83;18.13;;;4.90;1.00;;;;;;5117899;28;20205;-75
2024/03/09 08:39:52;;;;;;;39.97;21.30;;;5.00;1.00;;;;;;5120010;28;20201;-77
2024/03/09 08:42:18;;;;;;;38.97;21.17;;;5.40;1.00;;;;;;5119155;28;20247;-78
2024/03/09 08:44:48;;;;;;;39.50;19.03;;;5.80;1.00;;;;;;5118665;28;20254;-76
2024/03/09 08:47:15;;;;;;;37.33;19.43;;;5.40;99.90;;;;;;5117883;28;20200;-77
2024/03/09 08:49:43;;;;;;;36.53;19.97;;;5.20;1.00;;;;;;5118773;28;20231;-77
2024/03/09 08:52:13;;;;;;;33.33;17.67;;;5.30;1.00;;;;;;5118746;28;20223;-76
2024/03/09 08:54:41;;;;;;;39.80;19.93;;;5.00;99.90;;;;;;5117649;28;20200;-78
2024/03/09 08:57:11;;;;;;;38.83;18.63;;;5.20;1.00;;;;;;5115043;27;20834;-78
2024/03/09 08:59:41;;;;;;;30.67;14.53;;;5.40;99.90;;;;;;5111626;28;20213;-76
2024/03/09 09:02:09;;;;;;;33.77;17.33;;;5.20;99.90;;;;;;5118102;28;20236;-76
2024/03/09 09:04:36;;;;;;;33.53;18.17;;;5.20;99.90;;;;;;5105243;28;20648;-76
2024/03/09 09:07:05;;;;;;;33.20;18.17;;;5.50;99.90;;;;;;5118474;28;20635;-77
2024/03/09 09:09:31;;;;;;;36.27;19.67;;;5.50;90.90;;;;;;5117597;28;20236;-76
2024/03/09 09:11:59;;;;;;;35.30;19.70;;;5.70;63.50;;;;;;5117960;28;20213;-76
2024/03/09 09:14:26;;;;;;;31.43;17.47;;;5.90;5.20;;;;;;5117717;28;20213;-76
2024/03/09 09:16:54;;;;;;;30.53;14.70;;;5.70;1.00;;;;;;5116816;28;20227;-75
2024/03/09 09:19:23;;;;;;;33.07;17.90;;;5.80;1.00;;;;;;5116653;28;20287;-76
2024/03/09 09:21:51;;;;;;;33.63;18.37;;;6.20;1.00;;;;;;5118168;28;20289;-76
2024/03/09 09:24:19;;;;;;;31.17;18.40;;;6.20;1.00;;;;;;5116789;28;20197;-78
2024/03/09 09:26:47;;;;;;;32.33;19.30;;;6.40;1.00;;;;;;5116607;28;20197;-77
2024/03/09 09:29:13;;;;;;;31.83;17.37;;;6.30;1.00;;;;;;5115484;28;20208;-78
2024/03/09 09:31:40;;;;;;;31.00;18.30;;;6.40;1.00;;;;;;5119145;28;20225;-78
2024/03/09 09:34:10;;;;;;;30.07;16.97;;;6.70;1.00;;;;;;5119538;28;20240;-76
2024/03/09 09:36:40;;;;;;;26.97;15.67;;;6.70;1.00;;;;;;5118443;27;20246;-77
2024/03/09 09:39:13;;;;;;;28.57;15.33;;;6.80;1.00;;;;;;5117785;28;20258;-77
2024/03/09 09:41:44;;;;;;;32.27;19.07;;;6.80;1.00;;;;;;5112083;28;20256;-77
2024/03/09 09:44:11;;;;;;;30.40;15.60;;;6.90;1.00;;;;;;5112067;28;20257;-77
2024/03/09 09:46:38;;;;;;;25.33;13.70;;;7.00;1.00;;;;;;5118389;28;20208;-77
2024/03/09 09:49:08;;;;;;;28.10;15.77;;;7.00;1.00;;;;;;5116079;28;20227;-77
2024/03/09 09:51:39;;;;;;;32.30;17.63;;;6.90;1.00;;;;;;5110592;28;20780;-78
2024/03/09 09:54:08;;;;;;;31.03;17.97;;;7.20;1.00;;;;;;5116073;28;20299;-77
2024/03/09 09:56:35;;;;;;;32.57;17.97;;;7.50;1.00;;;;;;5119276;28;20216;-77
2024/03/09 09:59:02;;;;;;;32.13;16.93;;;7.40;1.00;;;;;;5112465;28;20699;-78
2024/03/09 10:01:31;;;;;;;31.17;18.87;;;7.30;99.90;;;;;;5118058;28;20903;-77
2024/03/09 10:03:57;;;;;;;28.73;17.53;;;7.50;1.00;;;;;;5107679;28;20252;-78
2024/03/09 10:06:25;;;;;;;26.80;15.37;;;7.50;99.90;;;;;;5119888;28;20636;-77
2024/03/09 10:08:54;;;;;;;30.43;18.83;;;7.70;99.90;;;;;;5118551;28;20204;-78
2024/03/09 10:11:22;;;;;;;30.77;17.70;;;7.80;99.90;;;;;;5105223;28;20463;-77
2024/03/09 10:13:52;;;;;;;29.23;18.17;;;8.10;99.90;;;;;;5110894;28;20576;-78
2024/03/09 10:16:27;;;;;;;29.57;18.90;;;8.60;99.90;;;;;;5111512;28;20219;-78
2024/03/09 10:18:55;;;;;;;29.37;18.57;;;8.70;99.90;;;;;;5117636;28;20279;-78
2024/03/09 10:21:27;;;;;;;27.57;15.43;;;8.80;99.90;;;;;;5117596;28;20707;-78
2024/03/09 10:24:03;;;;;;;28.93;16.63;;;8.20;99.90;;;;;;5118336;28;20291;-77
2024/03/09 10:26:30;;;;;;;30.07;17.80;;;8.20;99.90;;;;;;5112819;28;20605;-78
2024/03/09 10:28:59;;;;;;;28.27;16.70;;;8.20;99.90;;;;;;5112440;28;20230;-78
2024/03/09 10:31:26;;;;;;;28.17;18.63;;;8.30;99.90;;;;;;5112905;28;20276;-77
2024/03/09 10:33:54;;;;;;;28.03;18.17;;;8.50;99.90;;;;;;5115096;28;20299;-79
2024/03/09 10:36:23;;;;;;;27.37;17.30;;;8.60;99.90;;;;;;5111793;28;20295;-78
2024/03/09 10:38:54;;;;;;;26.33;16.13;;;8.80;99.90;;;;;;5117355;28;20251;-79
2024/03/09 10:41:24;;;;;;;29.30;17.57;;;8.60;99.90;;;;;;5112549;28;20208;-78
2024/03/09 10:43:53;;;;;;;26.67;17.77;;;8.80;99.90;;;;;;5109080;28;20380;-78
2024/03/09 10:46:25;;;;;;;28.03;17.70;;;8.80;99.90;;;;;;5113248;28;20197;-80
2024/03/09 10:48:55;;;;;;;29.40;17.60;;;8.60;95.90;;;;;;5116009;28;20300;-77
2024/03/09 10:51:37;;;;;;;27.17;16.87;;;8.60;92.20;;;;;;5111991;28;20217;-78
2024/03/09 10:54:17;;;;;;;26.00;14.47;;;8.80;99.90;;;;;;5116323;28;20209;-77
2024/03/09 10:56:50;;;;;;;26.67;15.73;;;8.60;93.00;;;;;;5117205;28;20575;-77
2024/03/09 10:59:17;;;;;;;27.60;16.70;;;8.60;39.10;;;;;;5115133;28;20187;-77
2024/03/09 11:01:48;;;;;;;28.10;16.47;;;8.60;90.20;;;;;;5108480;28;20249;-77
2024/03/09 11:04:16;;;;;;;28.67;18.13;;;8.60;76.70;;;;;;5112535;28;20203;-77
2024/03/09 11:06:45;;;;;;;26.27;16.07;;;8.90;99.90;;;;;;5106002;28;20255;-77
2024/03/09 11:09:15;;;;;;;28.90;18.07;;;8.70;57.40;;;;;;5112425;28;20197;-78
2024/03/09 11:11:44;;;;;;;31.50;18.33;;;9.00;77.20;;;;;;5112119;28;20304;-77
2024/03/09 11:14:20;;;;;;;30.77;17.80;;;8.90;41.90;;;;;;5096474;28;20197;-77
2024/03/09 11:16:52;;;;;;;27.10;17.07;;;8.80;99.90;;;;;;5113884;28;20295;-77
2024/03/09 11:19:20;;;;;;;26.63;15.77;;;9.10;66.70;;;;;;5108025;28;20254;-77
2024/03/09 11:21:48;;;;;;;25.73;16.00;;;8.80;74.50;;;;;;5115859;28;20584;-76
2024/03/09 11:24:16;;;;;;;28.23;16.37;;;8.80;36.80;;;;;;5109666;28;20193;-77
2024/03/09 11:26:50;;;;;;;31.00;18.80;;;9.00;22.60;;;;;;5097895;28;20229;-79
2024/03/09 11:29:21;;;;;;;30.37;17.00;;;9.00;30.50;;;;;;5108628;28;20216;-78
2024/03/09 11:31:50;;;;;;;29.77;17.90;;;8.90;18.20;;;;;;5101777;28;20353;-77
2024/03/09 11:34:21;;;;;;;27.77;17.37;;;8.80;1.00;;;;;;5102827;28;20213;-77
2024/03/09 11:36:52;;;;;;;28.23;18.03;;;8.90;44.70;;;;;;5109186;28;20248;-77
2024/03/09 11:39:22;;;;;;;28.77;17.10;;;8.90;38.80;;;;;;5104103;28;20236;-77
2024/03/09 11:41:50;;;;;;;28.90;17.70;;;8.80;23.70;;;;;;5104662;28;20256;-76
2024/03/09 11:44:22;;;;;;;26.47;16.63;;;9.20;73.40;;;;;;5110396;28;20212;-78
2024/03/09 11:46:49;;;;;;;24.67;12.90;;;9.30;55.60;;;;;;5110097;28;20836;-78
2024/03/09 11:49:17;;;;;;;29.40;17.23;;;8.90;16.90;;;;;;5108851;28;20288;-77
2024/03/09 11:51:44;;;;;;;27.27;18.30;;;8.90;2.10;;;;;;5116371;28;20224;-77
2024/03/09 11:54:13;;;;;;;28.83;18.17;;;8.90;1.00;;;;;;5111518;28;20229;-77
2024/03/09 11:56:41;;;;;;;29.40;18.77;;;9.10;1.00;;;;;;5115479;28;20231;-77
2024/03/09 11:59:10;;;;;;;27.57;18.07;;;9.00;24.60;;;;;;5119454;28;20302;-78
2024/03/09 12:01:39;;;;;;;27.40;16.90;;;8.90;1.00;;;;;;5118288;28;20229;-77
2024/03/09 12:04:07;;;;;;;31.10;18.23;;;8.90;5.60;;;;;;5112971;28;20205;-77
2024/03/09 12:06:35;;;;;;;29.33;18.27;;;9.20;79.80;;;;;;5120784;28;20200;-77
2024/03/09 12:09:02;;;;;;;23.53;13.57;;;9.40;99.90;;;;;;5119604;28;20239;-76
2024/03/09 12:11:32;;;;;;;29.77;16.63;;;9.10;68.40;;;;;;5106215;28;20279;-77
2024/03/09 12:13:59;;;;;;;22.53;13.57;;;8.90;90.50;;;;;;5106226;28;20208;-77
2024/03/09 12:16:28;;;;;;;27.63;16.83;;;8.70;35.60;;;;;;5108803;28;20275;-76
2024/03/09 12:18:59;;;;;;;26.33;14.10;;;8.90;37.10;;;;;;5114278;28;20212;-76
2024/03/09 12:21:27;;;;;;;24.07;15.13;;;9.00;1.00;;;;;;5109990;28;20217;-76
2024/03/09 12:23:58;;;;;;;30.30;18.20;;;9.00;15.30;;;;;;5117063;28;20205;-76
2024/03/09 12:26:26;;;;;;;24.50;12.60;;;9.10;16.00;;;;;;5099779;28;20280;-76
2024/03/09 12:28:57;;;;;;;29.60;18.80;;;9.10;12.60;;;;;;5103388;28;20201;-77
2024/03/09 12:31:25;;;;;;;27.00;16.30;;;9.20;58.20;;;;;;5112026;28;20297;-76
2024/03/09 12:33:54;;;;;;;26.33;16.13;;;9.30;47.50;;;;;;5114547;28;20204;-77
2024/03/09 12:36:24;;;;;;;28.53;18.67;;;9.10;1.90;;;;;;5120160;28;20258;-77
2024/03/09 12:38:51;;;;;;;28.73;18.67;;;9.20;16.00;;;;;;5120317;28;20292;-78
2024/03/09 12:41:29;;;;;;;27.77;17.23;;;9.40;99.00;;;;;;5111212;28;20691;-76
2024/03/09 12:44:02;;;;;;;29.00;15.73;;;9.30;4.30;;;;;;5113598;28;20292;-76
2024/03/09 12:46:30;;;;;;;30.30;18.00;;;9.10;1.00;;;;;;5111164;28;20304;-77